Overview Statistics Trail Chart Weather Telemetry Raw packets
 

This is the latest recevied weather packets stored in our database for station/object IW2NIA-3. If no packets are shown the sender has not sent any weather packets the latest 10 day(s).

<< 7 8 9 10 11 12 13 >>
Time Temp. Humidity Pressure Rain* Wind** Luminosity Snow
1788468525 22.22° C 73% 1018.6 hPa 0 mm - - -
1788467615 22.78° C 73% 1018.6 hPa 0 mm - - -
1788466711 22.78° C 73% 1018.5 hPa 0 mm - - -
1788465818 22.78° C 72% 1018.4 hPa 0 mm - - -
1788464909 23.33° C 72% 1018.4 hPa 0 mm - - -
1788464024 23.89° C 71% 1018.3 hPa 0 mm - - -
1788463127 23.89° C 70% 1018.2 hPa 0 mm - - -
1788462222 24.44° C 67% 1018 hPa 0 mm - - -
1788461311 25° C 66% 1017.8 hPa 0 mm - - -
1788460423 25.56° C 64% 1017.8 hPa 0 mm - - -
1788459524 26.67° C 59% 1017.6 hPa 0 mm - - -
1788458624 27.22° C 55% 1017.5 hPa 0 mm - - -
1788457723 27.78° C 53% 1017.4 hPa 0 mm - - -
1788456815 28.33° C 51% 1017.2 hPa 0 mm - - -
1788455928 28.89° C 47% 1017.3 hPa 0 mm - - -
1788455024 29.44° C 45% 1017.2 hPa 0 mm - - -
1788454124 30° C 43% 1017.2 hPa 0 mm - - -
1788453205 30.56° C 43% 1017.2 hPa 0 mm - - -
1788452310 31.11° C 42% 1017.2 hPa 0 mm - - -
1788451405 31.11° C 43% 1017.2 hPa 0 mm - - -
1788450518 31.67° C 43% 1017.2 hPa 0 mm - - -
1788449628 31.11° C 42% 1017.1 hPa 0 mm - - -
1788448725 31.11° C 40% 1017.2 hPa 0 mm - - -
1788447822 31.11° C 41% 1017.4 hPa 0 mm - - -
1788446927 31.11° C 43% 1017.5 hPa 0 mm - - -

* Rain latest hour (hover to see other rain measurements)
** Current wind speed in m/s (hover to see current wind gust speed)